createdAt,value
2019-04-23T00:00:51.938Z,0
2019-04-23T00:03:38.531Z,0
2019-04-23T00:06:06.509Z,0
2019-04-23T00:09:06.402Z,0
2019-04-23T00:11:25.270Z,0
2019-04-23T00:14:26.997Z,0
2019-04-23T00:17:36.802Z,0
2019-04-23T00:20:07.687Z,0
2019-04-23T00:22:36.401Z,0
2019-04-23T00:28:49.907Z,0
2019-04-23T00:31:42.860Z,0
2019-04-23T00:34:24.448Z,0
2019-04-23T00:37:18.235Z,0
2019-04-23T00:40:02.345Z,0
2019-04-23T00:51:15.606Z,0
2019-04-23T00:53:49.918Z,0
2019-04-23T00:56:38.055Z,0
2019-04-23T00:59:10.277Z,0
2019-04-23T01:01:42.354Z,0
2019-04-23T01:04:11.652Z,0
2019-04-23T01:06:28.650Z,0
2019-04-23T01:09:13.887Z,0
2019-04-23T01:11:43.159Z,0
2019-04-23T01:14:38.217Z,0
2019-04-23T01:16:57.814Z,0
2019-04-23T01:19:49.360Z,0
2019-04-23T01:21:01.037Z,0
2019-04-23T01:21:15.694Z,0
2019-04-23T01:22:14.604Z,0
2019-04-23T01:23:13.941Z,0
2019-04-23T01:24:40.014Z,0
2019-04-23T01:26:16.102Z,0
2019-04-23T01:29:19.753Z,0
2019-04-23T01:32:15.538Z,0
2019-04-23T01:34:49.400Z,0
2019-04-23T01:37:25.269Z,0
2019-04-23T01:40:03.572Z,0
2019-04-23T01:43:02.631Z,0
2019-04-23T01:45:54.254Z,0
2019-04-23T01:48:46.729Z,0
2019-04-23T01:51:33.694Z,0
2019-04-23T01:54:30.179Z,0
2019-04-23T01:57:07.515Z,0
2019-04-23T02:00:08.057Z,0
2019-04-23T02:08:51.728Z,0
2019-04-23T02:12:03.987Z,0
2019-04-23T02:14:54.522Z,0
2019-04-23T02:20:35.827Z,0
2019-04-23T02:23:56.709Z,0
2019-04-23T02:26:55.345Z,0
2019-04-23T02:30:57.421Z,0
2019-04-23T02:35:16.619Z,0
2019-04-23T02:38:55.353Z,0
2019-04-23T02:50:34.321Z,0
2019-04-23T02:57:12.643Z,0
2019-04-23T03:01:06.105Z,0
2019-04-23T03:07:59.256Z,0
2019-04-23T03:11:15.201Z,0
2019-04-23T03:14:13.409Z,0
2019-04-23T03:17:47.025Z,0
2019-04-23T03:25:44.534Z,0
2019-04-23T03:29:39.567Z,0
2019-04-23T03:40:36.576Z,0
2019-04-23T03:44:20.377Z,0
2019-04-23T03:47:55.912Z,0
2019-04-23T03:51:33.464Z,0
2019-04-23T03:58:10.243Z,0
2019-04-23T04:01:11.601Z,0
2019-04-23T04:09:59.140Z,0
2019-04-23T04:13:29.925Z,0
2019-04-23T04:16:40.307Z,0
2019-04-23T04:20:31.027Z,0
2019-04-23T04:25:06.460Z,0
2019-04-23T04:28:45.753Z,0
2019-04-23T04:32:35.844Z,0
2019-04-23T04:35:46.430Z,0
2019-04-23T04:39:33.248Z,0
2019-04-23T04:43:12.994Z,0
2019-04-23T04:46:12.129Z,0
2019-04-23T04:56:13.814Z,0
2019-04-23T05:03:08.858Z,0
2019-04-23T05:09:28.951Z,0
2019-04-23T05:13:29.924Z,0
2019-04-23T05:16:32.976Z,0
2019-04-23T05:20:19.671Z,0
2019-04-23T05:23:33.252Z,0
2019-04-23T05:28:48.766Z,0
2019-04-23T05:31:37.393Z,5
2019-04-23T05:34:39.689Z,5
2019-04-23T05:38:06.958Z,5
2019-04-23T05:41:16.129Z,5
2019-04-23T05:44:10.174Z,5
2019-04-23T05:47:10.893Z,5
2019-04-23T05:50:33.718Z,5
2019-04-23T05:56:20.410Z,5
2019-04-23T05:59:15.866Z,5
2019-04-23T06:02:40.591Z,5
2019-04-23T06:11:56.096Z,10
2019-04-23T06:15:03.120Z,15
2019-04-23T06:18:16.673Z,15
2019-04-23T06:21:23.585Z,15
2019-04-23T06:24:44.968Z,20
2019-04-23T06:28:01.163Z,20
2019-04-23T06:31:22.448Z,20
2019-04-23T06:34:11.931Z,20
2019-04-23T06:36:50.620Z,20
2019-04-23T06:39:54.672Z,25
2019-04-23T06:42:51.910Z,25
2019-04-23T06:45:57.320Z,25
2019-04-23T06:48:46.782Z,25
2019-04-23T06:54:42.202Z,30
2019-04-23T06:57:39.521Z,30
2019-04-23T07:00:40.937Z,30
2019-04-23T07:03:29.286Z,30
2019-04-23T07:06:28.293Z,30
2019-04-23T07:09:34.819Z,30
2019-04-23T07:12:29.539Z,35
2019-04-23T07:15:44.595Z,35
2019-04-23T07:18:16.010Z,40
2019-04-23T07:21:06.339Z,40
2019-04-23T07:27:13.027Z,35
2019-04-23T07:30:29.122Z,35
2019-04-23T07:33:10.271Z,40
2019-04-23T07:36:08.349Z,40
2019-04-23T07:39:15.398Z,45
2019-04-23T07:43:02.834Z,45
2019-04-23T07:46:40.490Z,45
2019-04-23T07:49:37.605Z,45
2019-04-23T07:53:29.105Z,45
2019-04-23T07:56:35.290Z,40
2019-04-23T08:00:17.960Z,40
2019-04-23T08:03:36.331Z,40
2019-04-23T08:06:45.810Z,40
2019-04-23T08:09:33.609Z,45
2019-04-23T08:13:30.773Z,45
2019-04-23T08:16:49.741Z,40
2019-04-23T08:22:39.098Z,40
2019-04-23T08:26:19.199Z,40
2019-04-23T08:29:30.135Z,45
2019-04-23T08:32:26.779Z,40
2019-04-23T08:35:33.702Z,40
2019-04-23T08:38:25.623Z,45
2019-04-23T08:41:33.252Z,50
2019-04-23T08:45:14.923Z,50
2019-04-23T08:51:27.876Z,50
2019-04-23T08:58:05.851Z,55
2019-04-23T09:01:21.024Z,55
2019-04-23T09:04:49.337Z,50
2019-04-23T09:11:41.545Z,60
2019-04-23T09:14:36.936Z,60
2019-04-23T09:17:47.396Z,55
2019-04-23T09:20:30.395Z,50
2019-04-23T09:23:46.499Z,50
2019-04-23T09:26:50.335Z,45
2019-04-23T09:29:51.224Z,45
2019-04-23T09:33:51.263Z,40
2019-04-23T09:36:57.782Z,40
2019-04-23T09:39:48.725Z,40
2019-04-23T09:46:17.272Z,45
2019-04-23T09:49:32.278Z,40
2019-04-23T09:52:35.537Z,45
2019-04-23T09:55:51.131Z,45
2019-04-23T09:59:08.615Z,45
2019-04-23T10:02:00.889Z,45
2019-04-23T10:03:53.188Z,45
2019-04-23T10:05:33.423Z,40
2019-04-23T10:06:36.182Z,40
2019-04-23T10:08:02.676Z,40
2019-04-23T10:08:56.161Z,40
2019-04-23T10:09:27.315Z,40
2019-04-23T10:10:18.433Z,40
2019-04-23T10:11:22.321Z,40
2019-04-23T10:12:22.012Z,40
2019-04-23T10:13:17.806Z,40
2019-04-23T10:14:20.965Z,40
2019-04-23T10:15:47.719Z,40
2019-04-23T10:16:32.233Z,40
2019-04-23T10:17:22.171Z,40
2019-04-23T10:18:18.182Z,40
2019-04-23T10:19:18.962Z,40
2019-04-23T10:20:20.455Z,40
2019-04-23T10:21:19.356Z,40
2019-04-23T10:22:19.503Z,40
2019-04-23T10:23:18.998Z,40
2019-04-23T10:24:19.364Z,40
2019-04-23T10:25:19.216Z,40
2019-04-23T10:26:20.001Z,40
2019-04-23T10:27:18.775Z,40
2019-04-23T10:28:27.025Z,40
2019-04-23T10:29:19.987Z,40
2019-04-23T10:30:21.708Z,40
2019-04-23T10:31:20.716Z,35
2019-04-23T10:32:19.741Z,35
2019-04-23T10:33:19.225Z,35
2019-04-23T10:34:21.256Z,35
2019-04-23T10:36:10.918Z,35
2019-04-23T10:36:38.594Z,35
2019-04-23T10:37:58.288Z,35
2019-04-23T10:38:36.313Z,35
2019-04-23T10:39:54.740Z,35
2019-04-23T10:40:50.137Z,35
2019-04-23T10:41:25.722Z,35
2019-04-23T10:42:24.929Z,40
2019-04-23T10:43:24.832Z,40
2019-04-23T10:44:25.464Z,40
2019-04-23T10:47:11.336Z,40
2019-04-23T10:50:50.234Z,45
2019-04-23T11:00:15.493Z,45
2019-04-23T11:06:49.297Z,50
2019-04-23T11:10:08.179Z,55
2019-04-23T11:13:31.225Z,55
2019-04-23T11:23:03.440Z,60
2019-04-23T11:26:05.277Z,60
2019-04-23T11:29:25.433Z,65
2019-04-23T11:33:06.279Z,65
2019-04-23T11:40:20.675Z,65
2019-04-23T11:43:37.407Z,70
2019-04-23T11:55:51.503Z,70
2019-04-23T11:58:40.487Z,70
2019-04-23T12:02:32.320Z,70
2019-04-23T12:09:04.435Z,70
2019-04-23T12:12:39.189Z,70
2019-04-23T12:16:08.327Z,70
2019-04-23T12:26:28.515Z,65
2019-04-23T12:29:59.672Z,65
2019-04-23T12:33:27.847Z,65
2019-04-23T12:36:45.266Z,65
2019-04-23T12:40:04.543Z,65
2019-04-23T12:43:27.247Z,70
2019-04-23T12:46:29.499Z,70
2019-04-23T12:53:08.515Z,75
2019-04-23T13:00:20.449Z,80
2019-04-23T13:03:29.526Z,80
2019-04-23T13:06:20.234Z,80
2019-04-23T13:09:52.349Z,75
2019-04-23T13:14:24.931Z,75
2019-04-23T13:17:43.994Z,75
2019-04-23T13:21:21.524Z,75
2019-04-23T13:25:01.689Z,70
2019-04-23T13:28:31.884Z,70
2019-04-23T13:31:39.282Z,70
2019-04-23T13:35:07.768Z,75
2019-04-23T13:39:08.958Z,80
2019-04-23T13:42:31.193Z,90
2019-04-23T13:46:14.731Z,90
2019-04-23T13:49:07.159Z,90
2019-04-23T13:56:14.953Z,85
2019-04-23T14:00:16.417Z,90
2019-04-23T14:03:53.379Z,95
2019-04-23T14:06:55.211Z,95
2019-04-23T14:10:16.781Z,95
2019-04-23T14:17:39.737Z,105
2019-04-23T14:27:46.206Z,115
2019-04-23T14:34:22.280Z,280
2019-04-23T14:37:50.406Z,455
2019-04-23T14:44:29.168Z,720
2019-04-23T14:47:58.862Z,710
2019-04-23T14:51:41.224Z,610
2019-04-23T14:58:20.152Z,435
2019-04-23T15:01:37.881Z,420
2019-04-23T15:05:03.381Z,465
2019-04-23T15:09:03.907Z,545
2019-04-23T15:12:29.503Z,600
2019-04-23T15:15:52.995Z,710
2019-04-23T15:22:41.234Z,595
2019-04-23T15:27:01.440Z,555
2019-04-23T15:28:41.738Z,500
2019-04-23T15:30:33.804Z,745
2019-04-23T15:34:00.117Z,675
2019-04-23T15:40:31.387Z,475
2019-04-23T15:44:08.356Z,435
2019-04-23T15:47:24.768Z,400
2019-04-23T15:50:42.142Z,515
2019-04-23T15:53:48.326Z,455
2019-04-23T15:57:44.775Z,475
2019-04-23T16:01:14.064Z,695
2019-04-23T16:01:51.135Z,785
2019-04-23T16:02:28.866Z,780
2019-04-23T16:03:40.927Z,755
2019-04-23T16:04:34.045Z,720
2019-04-23T16:05:35.039Z,695
2019-04-23T16:06:41.565Z,685
2019-04-23T16:10:08.462Z,650
2019-04-23T16:13:28.715Z,600
2019-04-23T16:16:59.584Z,475
2019-04-23T16:20:43.930Z,430
2019-04-23T16:23:49.821Z,390
2019-04-23T16:27:06.758Z,460
2019-04-23T16:30:24.381Z,395
2019-04-23T16:33:19.875Z,340
2019-04-23T16:36:53.521Z,250
2019-04-23T16:40:19.069Z,340
2019-04-23T16:43:31.933Z,290
2019-04-23T16:46:30.278Z,190
2019-04-23T16:49:49.684Z,80
2019-04-23T16:52:51.343Z,185
2019-04-23T16:56:03.969Z,170
2019-04-23T17:00:12.742Z,155
2019-04-23T17:06:23.077Z,140
2019-04-23T17:09:41.829Z,75
2019-04-23T17:12:54.520Z,45
2019-04-23T17:16:14.306Z,40
2019-04-23T17:19:21.924Z,40
2019-04-23T17:22:54.526Z,35
2019-04-23T17:37:19.288Z,20
2019-04-23T17:43:59.290Z,15
2019-04-23T17:47:20.261Z,15
2019-04-23T17:50:31.754Z,10
2019-04-23T17:53:36.999Z,10
2019-04-23T17:57:07.295Z,10
2019-04-23T18:03:54.055Z,5
2019-04-23T18:07:37.554Z,5
2019-04-23T18:11:44.326Z,5
2019-04-23T18:15:00.272Z,0
2019-04-23T18:18:30.446Z,0
2019-04-23T18:24:27.088Z,0
2019-04-23T18:27:37.043Z,0
2019-04-23T18:30:56.441Z,0
2019-04-23T18:35:18.112Z,0
2019-04-23T18:37:54.947Z,0
2019-04-23T18:41:05.053Z,0
2019-04-23T18:44:27.078Z,0
2019-04-23T18:47:48.554Z,0
2019-04-23T18:51:18.657Z,0
2019-04-23T18:54:27.976Z,0
2019-04-23T18:57:50.192Z,0
2019-04-23T19:01:27.458Z,0
2019-04-23T19:04:40.970Z,0
2019-04-23T19:08:00.838Z,0
2019-04-23T19:11:50.756Z,0
2019-04-23T19:15:11.031Z,0
2019-04-23T19:18:40.161Z,0
2019-04-23T19:22:34.550Z,0
2019-04-23T19:29:00.125Z,0
2019-04-23T19:32:23.717Z,0
2019-04-23T19:36:24.708Z,0
2019-04-23T19:40:08.470Z,0
2019-04-23T19:43:24.724Z,0
2019-04-23T19:49:36.415Z,0
2019-04-23T19:52:49.609Z,0
2019-04-23T19:59:10.051Z,0
2019-04-23T20:05:04.475Z,0
2019-04-23T20:08:21.758Z,0
2019-04-23T20:11:42.087Z,0
2019-04-23T20:14:59.765Z,0
2019-04-23T20:18:03.824Z,0
2019-04-23T20:21:29.765Z,0
2019-04-23T20:25:20.452Z,0
2019-04-23T20:34:47.458Z,0
2019-04-23T20:37:57.569Z,0
2019-04-23T20:41:42.147Z,0
2019-04-23T20:45:04.121Z,0
2019-04-23T20:48:30.415Z,0
2019-04-23T20:51:41.024Z,0
2019-04-23T20:58:12.617Z,0
2019-04-23T21:02:05.213Z,0
2019-04-23T21:05:49.797Z,0
2019-04-23T21:10:08.590Z,0
2019-04-23T21:17:03.683Z,0
2019-04-23T21:26:24.858Z,0
2019-04-23T21:30:08.361Z,0
2019-04-23T21:33:43.294Z,0
2019-04-23T21:37:18.353Z,0
2019-04-23T21:44:11.661Z,0
2019-04-23T21:47:23.893Z,0
2019-04-23T21:57:14.388Z,0
2019-04-23T22:00:21.707Z,0
2019-04-23T22:10:17.218Z,0
2019-04-23T22:17:22.366Z,0
2019-04-23T22:21:04.628Z,0
2019-04-23T22:24:18.199Z,0
2019-04-23T22:27:22.412Z,0
2019-04-23T22:30:47.122Z,0
2019-04-23T22:35:10.335Z,0
2019-04-23T22:38:40.790Z,0
2019-04-23T22:41:55.722Z,0
2019-04-23T22:46:22.549Z,0
2019-04-23T22:52:53.331Z,0
2019-04-23T22:56:22.780Z,0
2019-04-23T22:59:53.739Z,0
2019-04-23T23:03:05.861Z,0
2019-04-23T23:06:28.589Z,0
2019-04-23T23:10:43.999Z,0
2019-04-23T23:14:11.686Z,0
2019-04-23T23:17:29.081Z,0
2019-04-23T23:20:43.168Z,0
2019-04-23T23:23:45.836Z,0
2019-04-23T23:26:56.943Z,0
2019-04-23T23:36:53.045Z,0
2019-04-23T23:40:04.510Z,0
2019-04-23T23:49:52.895Z,0
2019-04-23T23:56:49.594Z,0
